Kapaa, HI

10:05 AM HST on September 17, 2014 (GMT -1000)
WAILUA HOMESTEADS | Change Station
CLOSE
Current Station
Personal Weather Station
Location: Kapaa, HI
Elevation: 361 ft
Nearby Weather Stations

Elev 361 ft 22.07 °N, 159.36 °W | Updated 7 seconds ago

Scattered Clouds
Scattered Clouds
79.5 °F
Feels Like 84 °F
N
4.0
Wind Variable Wind from East
Gusts 8.0 mph

Today
High -- | Low -- °F
--% Chance of Precip.
Yesterday
High -- | Low -- °F
Precip. -- in
6:24 AM 6:38 PM
Waning Crescent, 33% visible
Pressure 30.00 in
Visibility 10.0 miles
Clouds Few 2500 ft
Scattered Clouds 2800 ft
Heat Index 84 °F
Dew Point 76 °F
Humidity 88%
Rainfall 0.00 in
Snow Depth Not available.
UV 5.0 out of 12
Pollen Not available.
Air Quality Not available.
Flu Activity Not available.
METAR PHLI 171953Z 05008KT 10SM FEW025 SCT028 29/22 A3001 RMK AO2 SLP157 T02940217

More Conditions Fewer Conditions

Pressure 30.00 in
Visibility 10.0 miles
Clouds Few 2500 ft
Scattered Clouds 2800 ft
Heat Index 84 °F
Dew Point 76 °F
Humidity 88%
Rainfall 0.00 in
Snow Depth Not available.
UV 5.0 out of 12
Pollen Not available.
Air Quality Not available.
Flu Activity Not available.
METAR PHLI 171953Z 05008KT 10SM FEW025 SCT028 29/22 A3001 RMK AO2 SLP157 T02940217

More Conditions Fewer Conditions

10-Day Weather Forecast

Almanac

Astronomy

Sep. 17, 2014 Rise Set
Actual Time 6:24 AM HST 6:38 PM HST
Civil Twilight 6:02 AM HST 7:00 PM HST
Nautical Twilight 5:36 AM HST 7:26 PM HST
Astronomical Twilight 5:10 AM HST 7:52 PM HST
Moon 1:04 AM HST 2:28 PM HST
Length of Visible Light 12h 58m
Length of Day
12h 13m
Tomorrow will be 1m 16s shorter.
Waning Crescent, 33% of the Moon is Illuminated
Today
Waning Crescent
Sep 24
New
Oct 1
First Quarter
Oct 8
Full
Oct 15
Last Quarter

Today's Extremes

State Highs State Lows

Community

WunderPhotos

Upload Photos

1,754,154 photos uploaded!

Nearby

Snow Depth

Station Depth Elevation
No new snow has been reported.

Earthquake Activity

City Distance Mag. Time & Date
No recent earthquake activity has been reported nearby.
Minimum magnitude displayed is 2.5.

Coastal Water Temperatures

Place Temperature
No Stations Reporting

Nearby Weather Stations